Latest Weather Observations for Kingfish B

IDV60801

Issued at 7:32 am EDT Friday 22 October 2021 (issued every 10 minutes, with the page automatically refreshed every 10 minutes)

About weather observations | Map of weather stations | Latest weather observations for VIC | Other Formats
Station Details ID: 400139 Name: KINGFISH B (PLATFORM) Lat: -38.60 Lon: 148.19 Height: 31.4 m
Data from the previous 72 hours. | See also: Recent months for locations in Victoria
Date/Time
EDT
Temp
°C
App
Temp
°C
Dew
Point
°C
Rel
Hum
%
Delta-T
°C
Wind Press
QNH
hPa
Press
MSL
hPa
Rain since
9am
mm
Dir  Spd
km/h
Gust
km/h
Spd
kts
Gust
kts
22/07:20am 16.5 14.6 14.2 86 1.3 NE 17 32 9 17 1014.8 - -
22/07:10am 16.2 13.8 13.8 86 1.4 NE 19 35 10 19 1014.7 - -
22/07:00am 16.3 13.4 13.9 86 1.4 NE 22 43 12 23 1014.6 - -
22/06:50am 16.5 13.6 13.9 84 1.5 NE 22 39 12 21 1014.5 - -
22/06:40am 16.6 13.7 14.1 85 1.4 NE 22 37 12 20 1014.4 - -
22/06:30am 16.7 13.9 14.2 85 1.4 NE 22 43 12 23 1014.5 - -
22/06:20am 16.6 14.1 14.2 86 1.4 NE 20 39 11 21 1014.5 - -
22/06:10am 16.6 14.4 14.4 87 1.3 NE 19 39 10 21 1014.5 - -
22/06:00am 16.5 13.8 14.5 88 1.1 NE 22 41 12 22 1014.3 - -
22/05:50am 16.2 12.3 14.3 88 1.1 NE 28 46 15 25 1014.1 - -
22/05:40am 16.2 12.6 14.3 88 1.1 NE 26 46 14 25 1014.2 - -
22/05:30am 16.0 12.7 14.1 88 1.1 NE 24 44 13 24 1014.2 - -
22/05:20am 16.0 12.7 14.0 88 1.1 NE 24 43 13 23 1014.2 - -
22/05:10am 16.0 12.3 13.9 87 1.2 NE 26 44 14 24 1014.0 - -
22/05:00am 16.0 11.9 13.9 87 1.2 NE 28 48 15 26 1014.0 - -
22/04:50am 16.2 12.2 14.0 87 1.2 NE 28 46 15 25 1014.0 - -
22/04:40am 16.6 13.5 14.4 87 1.3 NE 24 44 13 24 1014.0 - -
22/04:30am 16.2 13.4 14.2 88 1.1 NE 22 46 12 25 1014.0 - -
22/04:20am 16.0 12.3 13.9 87 1.2 NE 26 48 14 26 1013.9 - -
22/04:10am 16.1 12.4 14.0 87 1.2 NE 26 44 14 24 1014.0 - -
22/04:00am 16.0 12.3 13.9 87 1.2 NE 26 43 14 23 1013.9 - -
22/03:50am 16.1 12.4 13.9 87 1.2 NE 26 48 14 26 1014.0 - -
22/03:40am 16.1 12.0 13.9 87 1.2 NE 28 44 15 24 1014.0 - -
22/03:30am 16.1 12.4 13.9 87 1.2 NE 26 44 14 24 1014.0 - -
22/03:20am 16.2 12.9 13.9 86 1.3 NE 24 44 13 24 1014.1 - -
22/03:10am 16.3 13.0 14.1 87 1.3 NE 24 43 13 23 1014.1 - -
22/03:00am 16.2 12.9 13.9 86 1.3 NE 24 43 13 23 1014.2 - -
22/02:50am 16.2 12.9 13.9 86 1.3 NE 24 48 13 26 1014.2 - -
22/02:40am 16.2 13.3 14.0 87 1.2 NE 22 44 12 24 1014.2 - -
22/02:30am 16.2 12.9 14.0 87 1.2 NE 24 48 13 26 1014.2 - -
22/02:20am 16.2 12.2 14.0 87 1.2 NE 28 48 15 26 1014.3 - -
22/02:10am 16.2 12.2 14.1 87 1.2 NE 28 54 15 29 1014.3 - -
22/02:00am 16.2 12.6 14.1 87 1.2 NE 26 48 14 26 1014.4 - -
22/01:50am 16.2 11.8 14.1 87 1.2 NE 30 56 16 30 1014.4 - -
22/01:40am 16.2 11.8 14.1 87 1.2 NE 30 52 16 28 1014.6 - -
22/01:30am 16.2 12.2 14.1 87 1.2 NE 28 52 15 28 1014.7 - -
22/12:50am 16.3 10.6 14.2 87 1.2 NE 37 56 20 30 1015.5 - -
22/12:40am 16.3 9.9 14.2 87 1.2 NE 41 59 22 32 1015.3 - -
22/12:30am 16.3 9.5 14.2 87 1.2 NE 43 59 23 32 1015.4 - -
22/12:20am 16.3 8.9 14.3 88 1.1 NE 46 63 25 34 1015.5 - -
22/12:10am 16.3 9.9 14.2 87 1.2 NE 41 57 22 31 1015.6 - -
22/12:00am 16.3 9.8 14.1 87 1.3 NE 41 57 22 31 1015.5 - -
 
Date/Time
EDT
Temp
°C
App
Temp
°C
Dew
Point
°C
Rel
Hum
%
Delta-T
°C
Wind Press
QNH
hPa
Press
MSL
hPa
Rain since
9am
mm
Dir  Spd
km/h
Gust
km/h
Spd
kts
Gust
kts
21/11:50pm 16.3 10.6 14.1 87 1.3 NE 37 54 20 29 1015.5 - -
21/11:40pm 16.3 11.0 14.1 87 1.3 NE 35 57 19 31 1015.5 - -
21/11:30pm 16.4 10.3 14.2 87 1.3 NE 39 59 21 32 1015.6 - -
21/11:20pm 16.4 9.6 14.2 87 1.3 NE 43 57 23 31 1015.5 - -
21/11:10pm 16.3 9.4 14.1 87 1.3 NE 43 59 23 32 1015.6 - -
21/11:00pm 16.3 9.2 14.1 87 1.3 NE 44 57 24 31 1015.6 - -
21/10:50pm 16.4 9.5 14.1 86 1.3 NE 43 57 23 31 1015.7 - -
21/10:40pm 16.4 10.3 14.1 86 1.3 NE 39 56 21 30 1015.8 - -
21/10:30pm 16.6 9.8 14.4 87 1.3 NE 43 57 23 31 1015.6 - -
21/10:20pm 16.4 8.6 14.2 87 1.3 NE 48 59 26 32 1015.6 - -
21/10:10pm 16.4 9.4 14.2 87 1.3 NE 44 57 24 31 1015.7 - -
21/10:00pm 16.5 9.7 14.2 86 1.3 NE 43 56 23 30 1015.7 - -
21/09:50pm 16.7 10.3 14.3 86 1.4 NE 41 57 22 31 1015.7 - -
21/09:40pm 16.5 9.7 14.2 86 1.3 NE 43 59 23 32 1015.6 - -
21/09:30pm 16.5 8.7 14.2 86 1.3 NE 48 61 26 33 1015.5 - -
21/09:20pm 16.5 8.3 14.2 86 1.3 NE 50 63 27 34 1015.4 - -
21/09:10pm 16.5 8.8 14.3 87 1.3 NE 48 63 26 34 1015.3 - -
21/09:00pm 16.5 8.7 14.2 86 1.3 NE 48 63 26 34 1015.3 - -
21/08:50pm 16.5 8.3 14.2 86 1.3 NE 50 65 27 35 1015.2 - -
21/08:40pm 16.4 8.6 14.2 87 1.3 NE 48 63 26 34 1015.1 - -
21/08:30pm 16.4 9.4 14.2 87 1.3 NE 44 63 24 34 1015.1 - -
21/08:20pm 16.5 8.7 14.2 86 1.3 NE 48 63 26 34 1015.1 - -
21/08:10pm 16.5 8.3 14.2 86 1.3 NE 50 67 27 36 1015.0 - -
21/08:00pm 16.5 8.3 14.2 86 1.3 NE 50 65 27 35 1015.0 - -
21/07:50pm 16.5 8.0 14.2 86 1.3 NE 52 63 28 34 1015.0 - -
21/07:40pm 16.5 7.9 14.1 86 1.4 NE 52 63 28 34 1014.9 - -
21/07:30pm 16.6 8.1 14.2 86 1.4 NE 52 63 28 34 1014.7 - -
21/07:20pm 16.8 8.0 14.5 86 1.3 NE 54 63 29 34 1014.7 - -
21/07:10pm 16.5 8.0 14.2 86 1.3 NE 52 59 28 32 1014.7 - -
21/07:00pm 16.5 8.8 14.3 87 1.3 NE 48 59 26 32 1014.6 - -
21/06:50pm 16.6 8.5 14.3 86 1.3 NE 50 61 27 33 1014.6 - -
21/06:40pm 16.7 8.2 14.3 86 1.4 NE 52 61 28 33 1014.6 - -
21/06:30pm 16.7 7.9 14.4 86 1.3 NE 54 61 29 33 1014.4 - -
21/06:20pm 16.7 8.2 14.3 86 1.4 NE 52 59 28 32 1014.4 - -
21/06:10pm 17.0 9.3 14.5 85 1.4 ENE 48 57 26 31 1014.4 - -
21/06:00pm 17.1 9.5 14.7 86 1.4 ENE 48 57 26 31 1014.4 - -
21/05:50pm 16.9 8.8 14.5 86 1.4 ENE 50 57 27 31 1014.3 - -
21/05:40pm 16.7 8.6 14.4 86 1.3 ENE 50 59 27 32 1014.5 - -
21/05:30pm 16.8 9.5 14.4 86 1.4 ENE 46 54 25 29 1014.7 - -
21/05:20pm 17.2 10.4 14.7 85 1.4 ENE 44 52 24 28 1014.7 - -
21/05:10pm 17.2 10.4 14.7 85 1.4 ENE 44 54 24 29 1014.6 - -
21/05:00pm 17.2 10.0 14.7 85 1.4 ENE 46 52 25 28 1014.5 - -
21/04:50pm 17.2 9.6 14.8 86 1.4 NE 48 54 26 29 1014.5 - -
21/04:40pm 17.2 10.1 14.9 86 1.3 NE 46 54 25 29 1014.5 - -
21/04:30pm 17.2 11.0 15.0 87 1.3 NE 41 54 22 29 1014.8 - -
21/04:20pm 17.1 11.3 15.0 87 1.2 ENE 39 44 21 24 1014.8 - -
21/04:10pm 16.9 11.4 14.8 87 1.2 ENE 37 43 20 23 1014.9 - -
21/04:00pm 16.8 10.9 14.8 88 1.2 ENE 39 46 21 25 1014.9 - -
21/03:50pm 16.8 10.2 14.8 88 1.2 ENE 43 46 23 25 1014.8 - -
21/03:40pm 16.8 10.6 14.9 88 1.1 ENE 41 48 22 26 1014.9 - -
21/03:30pm 16.8 10.6 15.0 89 1.0 ENE 41 48 22 26 1014.9 - -
21/03:20pm 16.4 10.1 14.7 90 1.0 ENE 41 48 22 26 1015.0 - -
21/03:10pm 16.4 10.1 14.6 89 1.0 ENE 41 48 22 26 1015.1 - -
21/03:00pm 16.6 11.1 14.7 88 1.1 ENE 37 41 20 22 1015.1 - -
21/02:50pm 16.6 11.2 14.9 90 1.0 ENE 37 43 20 23 1015.2 - -
21/02:40pm 16.2 10.7 14.6 90 0.9 ENE 37 44 20 24 1015.4 - -
21/02:30pm 16.2 9.9 14.5 90 1.0 ENE 41 46 22 25 1015.4 - -
21/02:20pm 16.2 9.3 14.4 89 1.0 ENE 44 50 24 27 1015.4 - -
21/02:10pm 16.2 9.2 14.3 88 1.1 ENE 44 52 24 28 1015.4 - -
21/02:00pm 16.2 9.4 14.2 88 1.1 ENE 43 48 23 26 1015.5 - -
21/01:50pm 16.3 9.9 14.2 87 1.2 ENE 41 50 22 27 1015.7 - -
21/01:40pm 16.4 9.6 14.2 87 1.3 ENE 43 48 23 26 1015.8 - -
21/01:30pm 16.3 8.9 14.2 87 1.2 ENE 46 50 25 27 1015.8 - -
21/01:20pm 16.2 9.3 14.1 87 1.2 ENE 43 52 23 28 1015.9 - -
21/01:10pm 16.3 10.2 14.1 87 1.3 ENE 39 46 21 25 1016.2 - -
21/01:00pm 16.4 9.9 14.1 86 1.3 ENE 41 44 22 24 1016.4 - -
21/12:50pm 16.6 10.1 14.1 85 1.4 ENE 41 44 22 24 1016.5 - -
21/12:40pm 16.7 10.3 14.2 85 1.4 ENE 41 44 22 24 1016.7 - -
21/12:30pm 16.7 9.8 14.0 84 1.5 ENE 43 48 23 26 1016.7 - -
21/12:20pm 17.1 10.7 14.2 83 1.7 ENE 41 44 22 24 1016.8 - -
21/12:10pm 17.3 11.7 14.5 83 1.6 ENE 37 43 20 23 1017.0 - -
21/12:00pm 16.9 11.2 14.2 84 1.5 ENE 37 41 20 22 1017.2 - -
21/11:50am 16.8 11.4 14.0 83 1.6 ENE 35 43 19 23 1017.4 - -
21/11:40am 17.2 12.5 14.2 82 1.7 ENE 32 35 17 19 1017.5 - -
21/11:30am 17.2 12.3 14.4 83 1.6 NE 33 37 18 20 1017.5 - -
21/11:20am 17.1 12.4 14.2 83 1.7 NE 32 37 17 20 1017.6 - -
21/11:10am 17.1 12.3 13.9 81 1.8 NE 32 35 17 19 1017.6 - -
21/11:00am 17.8 13.8 14.1 79 2.1 NE 28 33 15 18 1017.7 - -
21/10:50am 18.3 14.4 14.5 78 2.2 NE 28 35 15 19 1017.7 - -
21/10:40am 18.2 15.1 14.5 79 2.1 NE 24 32 13 17 1017.8 - -
21/10:30am 18.3 14.4 14.4 78 2.3 NE 28 35 15 19 1017.8 - -
21/10:20am 18.2 13.5 14.3 78 2.2 NE 32 35 17 19 1017.8 - -
21/10:10am 18.3 14.0 14.4 78 2.3 NE 30 37 16 20 1017.8 - -
21/10:00am 18.4 14.9 14.5 78 2.3 NE 26 32 14 17 1018.0 - -
21/09:50am 18.4 15.4 14.7 79 2.1 NE 24 30 13 16 1018.0 - -
21/09:40am 18.3 15.3 14.8 80 2.0 NE 24 30 13 16 1018.1 - -
21/09:30am 18.2 14.1 14.8 80 2.0 NE 30 35 16 19 1018.1 - -
21/09:20am 18.0 13.9 14.8 81 1.9 NE 30 35 16 19 1018.0 - -
21/09:10am 17.8 13.7 14.9 83 1.7 ENE 30 33 16 18 1017.9 - -
21/09:00am 17.3 12.7 14.6 84 1.6 ENE 32 37 17 20 1017.9 - -
21/08:50am 16.9 12.2 14.4 85 1.4 ENE 32 37 17 20 1017.9 - -
21/08:40am 16.9 12.6 14.4 85 1.4 ENE 30 33 16 18 1018.0 - -
21/08:30am 17.0 12.7 14.5 85 1.4 ENE 30 33 16 18 1018.0 - -
21/08:20am 16.9 12.6 14.3 85 1.5 ENE 30 33 16 18 1018.0 - -
21/08:10am 17.0 12.7 14.4 85 1.5 ENE 30 35 16 19 1018.0 - -
21/08:00am 17.6 13.6 15.1 85 1.5 ENE 30 33 16 18 1018.0 - -
21/07:50am 17.4 13.5 15.5 89 1.1 ENE 30 35 16 19 1018.0 - -
21/07:40am 16.8 13.1 15.1 90 1.0 ENE 28 33 15 18 1018.0 - -
21/07:30am 16.3 13.0 14.9 91 0.8 ENE 26 32 14 17 1018.0 - -
21/07:20am 16.1 13.1 14.9 93 0.7 ENE 24 30 13 16 1017.9 - -
21/07:10am 15.9 12.5 14.8 93 0.6 ENE 26 32 14 17 1017.8 - -
21/07:00am 15.7 12.3 14.7 94 0.6 ENE 26 32 14 17 1017.6 - -
21/06:50am 15.2 11.6 14.3 94 0.5 ENE 26 32 14 17 1017.6 - -
21/06:40am 15.1 11.5 14.2 94 0.5 ENE 26 30 14 16 1017.5 - -
21/06:30am 15.0 10.6 14.2 95 0.5 ENE 30 37 16 20 1017.4 - -
21/06:20am 14.9 10.9 14.0 94 0.5 ENE 28 33 15 18 1017.4 - -
21/06:10am 15.1 11.5 14.1 94 0.6 ENE 26 30 14 16 1017.6 - -
21/06:00am 15.1 10.7 14.1 94 0.6 ENE 30 37 16 20 1017.5 - -
21/05:50am 15.0 10.6 14.1 94 0.5 ENE 30 35 16 19 1017.5 - -
21/05:40am 15.0 11.0 14.0 94 0.6 ENE 28 33 15 18 1017.4 - -
21/05:30am 15.0 11.3 14.0 94 0.6 ENE 26 32 14 17 1017.5 - -
21/05:20am 15.0 11.0 14.0 94 0.6 ENE 28 33 15 18 1017.5 - -
21/05:10am 15.0 10.5 13.9 93 0.6 ENE 30 35 16 19 1017.5 - -
21/05:00am 15.0 10.5 13.9 93 0.6 ENE 30 35 16 19 1017.6 - -
21/04:50am 15.0 10.5 13.9 93 0.6 ENE 30 35 16 19 1017.6 - -
21/04:40am 15.0 10.2 13.9 93 0.6 ENE 32 35 17 19 1017.5 - -
21/04:30am 15.0 10.1 13.8 92 0.7 ENE 32 39 17 21 1017.4 - -
21/04:20am 15.0 10.5 13.8 92 0.7 ENE 30 37 16 20 1017.5 - -
21/04:10am 15.0 9.9 13.8 92 0.7 ENE 33 39 18 21 1017.5 - -
21/04:00am 14.9 10.0 13.7 92 0.7 ENE 32 39 17 21 1017.7 - -
21/03:50am 14.9 9.8 13.7 92 0.7 ENE 33 39 18 21 1017.7 - -
21/03:40am 14.9 9.4 13.6 92 0.7 ENE 35 41 19 22 1017.7 - -
21/03:30am 14.9 9.8 13.6 92 0.7 ENE 33 39 18 21 1017.8 - -
21/03:20am 14.9 9.7 13.5 91 0.8 ENE 33 41 18 22 1017.9 - -
21/03:10am 14.9 9.7 13.5 91 0.8 ENE 33 41 18 22 1018.1 - -
21/03:00am 15.0 10.1 13.6 91 0.8 ENE 32 39 17 21 1018.4 - -
21/02:50am 14.9 10.3 13.5 91 0.8 ENE 30 33 16 18 1018.6 - -
21/02:40am 15.0 10.4 13.5 91 0.8 ENE 30 32 16 17 1018.8 - -
21/02:30am 14.9 10.3 13.4 91 0.8 ENE 30 32 16 17 1019.0 - -
21/02:20am 15.0 10.4 13.5 91 0.8 ENE 30 33 16 18 1019.2 - -
21/02:10am 14.9 9.9 13.4 91 0.8 ENE 32 35 17 19 1019.4 - -
21/02:00am 14.9 9.9 13.4 91 0.8 ENE 32 37 17 20 1019.6 - -
21/01:50am 14.9 10.3 13.4 91 0.8 ENE 30 33 16 18 1019.7 - -
21/01:40am 14.9 9.9 13.4 91 0.8 ENE 32 37 17 20 1019.9 - -
21/01:30am 15.0 10.4 13.5 91 0.8 NE 30 33 16 18 1020.0 - -
21/12:50am 14.9 9.7 13.5 91 0.8 ENE 33 37 18 20 1020.3 - -
21/12:40am 14.9 9.7 13.5 91 0.8 ENE 33 37 18 20 1020.3 - -
21/12:30am 14.9 9.4 13.5 91 0.8 ENE 35 39 19 21 1020.5 - -
21/12:20am 14.9 9.4 13.5 91 0.8 ENE 35 39 19 21 1020.6 - -
21/12:10am 15.0 9.9 13.6 91 0.8 ENE 33 39 18 21 1020.6 - -
21/12:00am 15.1 10.0 13.7 91 0.8 ENE 33 39 18 21 1020.5 - -
 
Date/Time
EDT
Temp
°C
App
Temp
°C
Dew
Point
°C
Rel
Hum
%
Delta-T
°C
Wind Press
QNH
hPa
Press
MSL
hPa
Rain since
9am
mm
Dir  Spd
km/h
Gust
km/h
Spd
kts
Gust
kts
20/11:50pm 14.9 10.0 13.6 92 0.7 ENE 32 39 17 21 1020.5 - -
20/11:40pm 14.8 9.8 13.4 91 0.8 ENE 32 37 17 20 1020.6 - -
20/11:30pm 14.6 9.5 13.2 91 0.8 ENE 32 39 17 21 1020.7 - -
20/11:20pm 14.6 9.5 13.2 91 0.8 ENE 32 41 17 22 1020.7 - -
20/11:10pm 14.6 9.3 13.1 91 0.8 ENE 33 43 18 23 1020.7 - -
20/11:00pm 14.6 9.3 13.0 90 0.9 ENE 33 39 18 21 1020.8 - -
20/10:50pm 14.6 9.2 12.9 89 0.9 ENE 33 44 18 24 1020.9 - -
20/10:40pm 14.6 8.5 12.9 89 0.9 ENE 37 46 20 25 1021.0 - -
20/10:30pm 14.6 8.4 12.8 89 1.0 ENE 37 46 20 25 1021.1 - -
20/10:20pm 14.6 8.1 12.8 89 1.0 ENE 39 50 21 27 1021.1 - -
20/10:10pm 14.5 7.9 12.7 89 1.0 ENE 39 44 21 24 1021.1 - -
20/10:00pm 14.5 7.9 12.6 88 1.0 ENE 39 48 21 26 1021.1 - -
20/09:50pm 14.5 7.9 12.6 88 1.0 ENE 39 46 21 25 1021.2 - -
20/09:40pm 14.5 7.9 12.6 88 1.0 ENE 39 48 21 26 1021.3 - -
20/09:30pm 14.6 8.4 12.6 88 1.1 ENE 37 46 20 25 1021.4 - -
20/09:20pm 14.5 7.9 12.5 88 1.1 ENE 39 46 21 25 1021.3 - -
20/09:10pm 14.5 7.5 12.4 87 1.1 ENE 41 50 22 27 1021.2 - -
20/09:00pm 14.5 7.5 12.4 87 1.1 ENE 41 50 22 27 1021.1 - -
20/08:50pm 14.4 7.0 12.4 88 1.1 ENE 43 48 23 26 1021.2 - -
20/08:40pm 14.5 7.1 12.4 87 1.1 ENE 43 52 23 28 1021.1 - -
20/08:30pm 14.5 6.9 12.3 87 1.2 ENE 44 52 24 28 1021.0 - -
20/08:20pm 14.6 6.9 12.2 85 1.3 ENE 44 52 24 28 1020.9 - -
20/08:10pm 14.6 6.9 12.2 85 1.3 ENE 44 54 24 29 1020.7 - -
20/08:00pm 14.6 7.1 12.1 85 1.4 ENE 43 50 23 27 1020.7 - -
20/07:50pm 14.6 7.4 12.0 84 1.4 ENE 41 50 22 27 1020.7 - -
20/07:40pm 14.6 7.5 12.1 85 1.4 ENE 41 50 22 27 1020.7 - -
20/07:30pm 14.6 7.1 12.0 84 1.4 ENE 43 50 23 27 1020.5 - -
20/07:20pm 14.7 7.5 12.0 84 1.5 ENE 41 52 22 28 1020.6 - -
20/07:10pm 14.7 6.9 11.8 83 1.6 ENE 44 52 24 28 1020.5 - -
20/07:00pm 14.7 6.2 11.9 83 1.5 ENE 48 52 26 28 1020.5 - -
20/06:50pm 14.7 7.0 12.0 84 1.5 ENE 44 50 24 27 1020.6 - -
20/06:40pm 14.7 7.0 12.0 84 1.5 ENE 44 52 24 28 1020.4 - -
20/06:30pm 14.8 7.7 12.2 84 1.4 ENE 41 50 22 27 1020.5 - -
20/06:20pm 14.7 7.2 12.2 85 1.4 ENE 43 50 23 27 1020.6 - -
20/06:10pm 14.7 7.6 12.3 85 1.3 ENE 41 50 22 27 1020.7 - -
20/06:00pm 14.8 8.1 12.4 85 1.3 ENE 39 50 21 27 1020.8 - -
20/05:50pm 14.8 8.1 12.3 85 1.4 ENE 39 48 21 26 1020.8 - -
20/05:40pm 14.7 7.6 12.2 85 1.4 ENE 41 48 22 26 1020.8 - -
20/05:30pm 14.6 7.5 12.1 85 1.4 ENE 41 48 22 26 1020.8 - -
20/05:20pm 14.6 7.4 12.0 84 1.4 ENE 41 46 22 25 1020.8 - -
20/05:10pm 14.6 6.8 11.9 84 1.5 E 44 48 24 26 1020.9 - -
20/05:00pm 14.5 6.9 11.9 84 1.4 ENE 43 48 23 26 1021.0 - -
20/04:50pm 14.6 7.8 11.9 84 1.5 ENE 39 46 21 25 1021.0 - -
20/04:40pm 14.6 7.8 11.8 83 1.5 ENE 39 46 21 25 1021.1 - -
20/04:30pm 14.5 7.6 11.7 83 1.5 E 39 44 21 24 1021.2 - -
20/04:20pm 14.5 7.6 11.7 83 1.5 ENE 39 44 21 24 1021.3 - -
20/04:10pm 14.5 8.0 11.7 83 1.5 E 37 43 20 23 1021.5 - -
20/04:00pm 14.5 8.0 11.7 83 1.5 E 37 43 20 23 1021.5 - -
20/03:50pm 14.6 8.5 11.6 82 1.6 E 35 41 19 22 1021.6 - -
20/03:40pm 14.6 7.7 11.6 82 1.6 ENE 39 43 21 23 1021.7 - -
20/03:30pm 14.6 7.7 11.5 82 1.7 ENE 39 46 21 25 1021.8 - -
20/03:20pm 14.6 7.3 11.5 82 1.7 E 41 44 22 24 1022.0 - -
20/03:10pm 14.6 7.3 11.6 82 1.6 E 41 44 22 24 1022.1 - -
20/03:00pm 14.4 7.1 11.4 82 1.6 ENE 41 46 22 25 1022.2 - -
20/02:50pm 14.4 7.1 11.4 82 1.6 E 41 48 22 26 1022.2 - -
20/02:40pm 14.3 6.9 11.3 82 1.6 ENE 41 48 22 26 1022.3 - -
20/02:30pm 14.3 6.5 11.2 81 1.6 E 43 46 23 25 1022.3 - -
20/02:20pm 14.4 6.6 11.3 81 1.7 E 43 46 23 25 1022.3 - -
20/02:10pm 14.4 6.6 11.3 81 1.7 ENE 43 46 23 25 1022.3 - -
20/02:00pm 14.5 7.2 11.4 82 1.7 ENE 41 48 22 26 1022.3 - -
20/01:50pm 14.5 7.1 11.3 81 1.7 ENE 41 44 22 24 1022.4 - -
20/01:40pm 14.5 7.1 11.2 80 1.8 ENE 41 44 22 24 1022.6 - -
20/01:30pm 14.6 7.6 11.2 80 1.8 E 39 46 21 25 1022.6 - -
20/01:20pm 14.7 8.1 11.3 80 1.8 E 37 44 20 24 1022.8 - -
20/01:10pm 14.5 7.5 11.2 80 1.8 E 39 44 21 24 1022.8 - -
20/01:00pm 14.5 7.5 11.1 80 1.8 E 39 43 21 23 1022.9 - -
20/12:50pm 14.7 7.7 11.1 79 1.9 E 39 44 21 24 1023.0 - -
20/12:40pm 14.7 7.6 10.8 77 2.1 E 39 44 21 24 1023.2 - -
20/12:30pm 14.8 7.6 10.7 76 2.2 E 39 44 21 24 1023.3 - -
20/12:20pm 14.8 7.7 10.8 77 2.1 ENE 39 43 21 23 1023.4 - -
20/12:10pm 14.9 7.8 10.9 77 2.1 ENE 39 44 21 24 1023.7 - -
20/12:00pm 14.8 7.7 10.9 77 2.1 E 39 44 21 24 1023.8 - -
20/11:50am 14.8 7.7 11.0 78 2.0 E 39 43 21 23 1024.0 - -
20/11:40am 14.9 8.6 11.1 78 2.0 E 35 41 19 22 1024.2 - -
20/11:30am 15.0 9.1 11.0 77 2.1 ENE 33 41 18 22 1024.3 - -
20/11:20am 14.9 8.9 10.9 77 2.1 E 33 37 18 20 1024.4 - -
20/11:10am 14.9 8.9 10.8 76 2.2 E 33 37 18 20 1024.4 - -
20/11:00am 14.9 9.2 11.0 77 2.1 E 32 37 17 20 1024.4 - -
20/10:50am 14.8 8.1 10.9 77 2.1 E 37 43 20 23 1024.3 - -
20/10:40am 14.7 7.6 11.0 78 2.0 E 39 43 21 23 1024.3 - -
20/10:30am 14.7 8.0 11.1 79 1.9 E 37 43 20 23 1024.3 - -
20/10:20am 14.5 7.4 10.9 79 1.9 E 39 44 21 24 1024.3 - -
20/10:10am 14.6 8.8 10.9 78 2.0 E 32 41 17 22 1024.3 - -
20/10:00am 14.8 8.5 10.9 77 2.1 E 35 43 19 23 1024.5 - -
20/09:50am 14.8 8.1 10.9 77 2.1 E 37 43 20 23 1024.4 - -
20/09:40am 14.7 7.2 10.9 78 2.0 E 41 44 22 24 1024.2 - -
20/09:30am 14.5 7.5 11.1 80 1.8 E 39 44 21 24 1024.2 - -
20/09:20am 14.2 8.3 11.1 81 1.6 E 33 41 18 22 1024.4 - -
20/09:10am 14.0 7.3 10.9 81 1.6 E 37 44 20 24 1024.5 - -
20/09:00am 14.1 7.8 10.9 81 1.7 E 35 48 19 26 1024.5 - -
20/08:50am 14.2 7.8 10.8 80 1.8 E 35 46 19 25 1024.4 - -
20/08:40am 14.3 7.1 10.6 78 1.9 E 39 48 21 26 1024.4 - -
20/08:30am 14.4 7.2 10.7 78 1.9 E 39 44 21 24 1024.5 - -
20/08:20am 14.4 8.0 10.7 78 1.9 E 35 43 19 23 1024.4 - -
20/08:10am 14.4 8.0 10.6 78 2.0 E 35 43 19 23 1024.4 - -
20/08:00am 14.4 8.0 10.6 78 2.0 E 35 41 19 22 1024.5 - -
20/07:50am 14.0 7.9 10.5 79 1.8 E 33 39 18 21 1024.6 - -
20/07:40am 13.8 7.8 10.2 79 1.9 E 32 39 17 21 1024.5 - -
20/07:30am 13.8 8.2 10.1 78 1.9 E 30 37 16 20 1024.6 - -
20/07:20am 13.8 7.8 10.1 78 1.9 E 32 41 17 22 1024.5 - -
20/07:10am 13.8 7.3 10.3 79 1.8 E 35 43 19 23 1024.5 - -
20/07:00am 13.7 7.6 10.4 80 1.7 E 33 43 18 23 1024.3 - -
20/06:50am 13.6 8.1 10.4 81 1.7 E 30 41 16 22 1024.4 - -
20/06:40am 13.6 7.1 10.4 81 1.7 ESE 35 41 19 22 1024.5 - -
20/06:30am 13.5 7.9 10.3 81 1.7 E 30 39 16 21 1024.3 - -
20/06:20am 13.4 7.2 10.2 81 1.7 E 33 43 18 23 1024.3 - -
20/06:10am 13.4 7.3 10.3 81 1.6 E 33 43 18 23 1024.2 - -
20/06:00am 13.4 6.9 10.3 81 1.6 E 35 43 19 23 1024.0 - -
20/05:50am 13.4 7.2 10.1 80 1.7 E 33 41 18 22 1023.9 - -
20/05:40am 13.3 6.7 10.1 81 1.7 E 35 41 19 22 1023.9 - -
20/05:30am 13.3 7.3 10.1 81 1.7 E 32 39 17 21 1023.9 - -
20/05:20am 13.3 6.3 9.9 80 1.8 ESE 37 43 20 23 1023.9 - -
20/05:10am 13.2 5.8 9.8 80 1.7 E 39 44 21 24 1023.6 - -
20/05:00am 13.2 6.6 9.9 80 1.7 E 35 44 19 24 1023.4 - -
20/04:40am 13.3 5.9 9.8 79 1.8 E 39 46 21 25 1023.3 - -
20/04:30am 13.3 6.2 9.7 79 1.8 E 37 46 20 25 1023.3 - -
20/04:20am 13.3 5.9 9.7 79 1.8 E 39 50 21 27 1023.4 - -
20/04:10am 13.4 4.9 9.4 77 2.0 E 44 50 24 27 1023.5 - -
20/04:00am 13.4 5.1 9.5 77 2.0 ESE 43 48 23 26 1023.8 - -
20/03:50am 13.5 5.6 9.4 76 2.1 E 41 50 22 27 1024.0 - -
20/03:40am 13.6 5.8 9.6 77 2.1 ESE 41 48 22 26 1024.2 - -
20/03:30am 13.6 5.1 9.4 76 2.1 E 44 50 24 27 1024.1 - -
20/03:20am 13.6 4.8 9.4 76 2.1 ESE 46 50 25 27 1024.0 - -
20/03:10am 13.7 5.2 9.4 75 2.2 ESE 44 50 24 27 1024.0 - -
20/03:00am 13.7 5.2 9.3 75 2.2 ESE 44 52 24 28 1023.9 - -
20/02:50am 13.7 5.2 9.3 75 2.2 ESE 44 52 24 28 1023.9 - -
20/02:40am 13.6 5.7 9.3 75 2.2 E 41 48 22 26 1024.0 - -
20/02:30am 13.7 5.8 9.4 75 2.2 ESE 41 46 22 25 1024.2 - -
20/02:20am 13.6 5.7 9.2 75 2.2 ESE 41 44 22 24 1024.5 - -
20/02:10am 13.5 6.0 9.5 77 2.0 ESE 39 44 21 24 1024.8 - -
20/02:00am 13.6 6.2 9.7 77 2.0 ESE 39 43 21 23 1024.9 - -
20/01:50am 13.7 5.8 9.3 75 2.2 ESE 41 46 22 25 1025.1 - -
20/01:40am 13.8 6.3 9.3 74 2.3 ESE 39 48 21 26 1025.0 - -
20/01:30am 13.8 6.3 9.3 74 2.3 ESE 39 44 21 24 1025.1 - -
20/12:50am 13.7 6.3 9.8 77 2.0 ESE 39 46 21 25 1024.7 - -
20/12:40am 13.6 5.8 9.7 77 2.0 ESE 41 50 22 27 1024.6 - -
20/12:30am 13.7 5.9 9.7 77 2.1 ESE 41 46 22 25 1024.6 - -
20/12:20am 13.8 5.5 9.3 74 2.3 ESE 43 50 23 27 1024.3 - -
20/12:10am 13.8 4.9 9.1 73 2.4 ESE 46 52 25 28 1024.4 - -
20/12:00am 13.8 4.5 9.2 74 2.3 ESE 48 54 26 29 1024.3 - -
 
Date/Time
EDT
Temp
°C
App
Temp
°C
Dew
Point
°C
Rel
Hum
%
Delta-T
°C
Wind Press
QNH
hPa
Press
MSL
hPa
Rain since
9am
mm
Dir  Spd
km/h
Gust
km/h
Spd
kts
Gust
kts
19/11:50pm 13.8 4.9 9.3 74 2.3 ESE 46 54 25 29 1024.0 - -
19/11:40pm 13.8 4.5 9.1 73 2.4 ESE 48 54 26 29 1023.9 - -
19/11:30pm 13.8 4.1 9.0 73 2.4 ESE 50 56 27 30 1023.9 - -
19/11:20pm 13.8 4.0 8.8 72 2.5 ESE 50 56 27 30 1024.0 - -
19/11:10pm 13.8 4.5 9.0 73 2.4 ESE 48 54 26 29 1024.0 - -
19/11:00pm 13.8 4.5 9.1 73 2.4 ESE 48 54 26 29 1024.0 - -
19/10:50pm 13.8 5.5 9.3 74 2.3 E 43 52 23 28 1024.0 - -
19/10:40pm 13.8 5.5 9.2 74 2.3 E 43 52 23 28 1024.0 - -
19/10:30pm 13.8 4.9 9.1 73 2.4 E 46 52 25 28 1024.1 - -
19/10:20pm 13.8 5.3 9.3 74 2.3 E 44 52 24 28 1024.1 - -
19/10:10pm 13.8 5.5 9.4 75 2.2 ESE 43 50 23 27 1024.2 - -
19/10:00pm 13.9 5.4 9.4 74 2.3 ESE 44 50 24 27 1024.4 - -
19/09:50pm 13.9 5.4 9.2 73 2.4 E 44 50 24 27 1024.4 - -
19/09:40pm 13.9 5.0 9.3 74 2.3 ESE 46 54 25 29 1024.5 - -
19/09:30pm 13.8 5.4 9.6 76 2.2 ESE 44 50 24 27 1024.4 - -
19/09:20pm 13.8 5.5 10.0 78 2.0 E 44 50 24 27 1024.2 - -
19/09:10pm 13.7 6.1 10.4 80 1.7 ESE 41 48 22 26 1024.2 - -
19/09:00pm 13.7 6.0 10.3 80 1.8 ESE 41 48 22 26 1024.0 - -
19/08:50pm 13.6 5.0 10.2 80 1.8 E 46 54 25 29 1023.7 - -
19/08:40pm 13.7 5.7 10.4 80 1.7 ESE 43 54 23 29 1023.9 - -
19/08:30pm 13.6 5.5 10.2 80 1.8 ESE 43 50 23 27 1023.8 - -
19/08:20pm 13.5 5.2 10.2 80 1.7 ESE 44 50 24 27 1023.6 - -
19/08:10pm 13.5 4.9 10.2 80 1.7 ESE 46 52 25 28 1023.5 - -
19/08:00pm 13.5 5.4 10.2 80 1.7 ESE 43 50 23 27 1023.4 - -
19/07:50pm 13.5 5.5 10.4 81 1.6 ESE 43 50 23 27 1023.5 - -
19/07:40pm 13.5 5.5 10.4 81 1.6 ESE 43 48 23 26 1023.4 - -
19/07:30pm 13.5 5.5 10.4 81 1.6 ESE 43 50 23 27 1023.3 - -
19/07:20pm 13.6 5.6 10.3 80 1.7 ESE 43 48 23 26 1023.2 - -
19/07:10pm 13.5 5.3 10.3 81 1.7 ESE 44 52 24 28 1023.0 - -
19/07:00pm 13.5 5.4 10.6 82 1.5 ESE 44 52 24 28 1022.9 - -
19/06:50pm 13.4 5.3 10.6 83 1.5 ESE 44 50 24 27 1022.8 - -
19/06:40pm 13.4 5.2 10.5 82 1.5 ESE 44 50 24 27 1022.7 - -
19/06:30pm 13.4 4.9 10.6 83 1.5 ESE 46 54 25 29 1022.6 - -
19/06:20pm 13.4 4.5 10.7 84 1.4 ESE 48 54 26 29 1022.4 - -
19/06:10pm 13.4 4.9 10.5 82 1.5 SE 46 56 25 30 1022.4 - -
19/06:00pm 13.5 5.0 10.6 82 1.5 SE 46 52 25 28 1022.5 - -
19/05:50pm 13.6 5.5 10.6 82 1.6 SE 44 52 24 28 1022.4 - -
19/05:40pm 13.7 5.5 10.5 81 1.7 ESE 44 50 24 27 1022.3 - -
19/05:30pm 13.8 5.8 10.4 80 1.8 ESE 43 50 23 27 1022.3 - -
19/05:20pm 13.7 4.7 10.2 79 1.8 ESE 48 56 26 30 1021.9 - -
19/05:10pm 13.6 4.3 10.4 81 1.7 ESE 50 56 27 30 1021.8 - -
19/05:00pm 13.6 4.7 10.6 82 1.6 ESE 48 56 26 30 1021.6 - -
19/04:50pm 13.2 4.0 11.0 86 1.2 ESE 50 59 27 32 1021.5 - -
19/04:40pm 12.8 5.0 11.2 90 0.8 ESE 43 52 23 28 1021.5 - -
19/04:30pm 12.6 4.3 11.3 92 0.7 ESE 46 52 25 28 1021.5 - -
19/04:20pm 12.2 3.8 11.1 93 0.6 ESE 46 54 25 29 1021.6 - -
19/04:10pm 12.3 4.9 11.2 93 0.6 ESE 41 50 22 27 1021.7 - -
19/04:00pm 12.3 4.9 11.2 93 0.6 ESE 41 52 22 28 1021.6 - -
19/03:50pm 12.2 3.8 11.1 93 0.6 ESE 46 52 25 28 1021.5 - -
19/03:40pm 11.9 4.8 10.8 93 0.6 SE 39 56 21 30 1021.7 - -
19/03:30pm 12.0 4.4 10.6 91 0.7 SE 41 48 22 26 1021.7 - -
19/03:20pm 12.2 6.2 10.7 90 0.8 SE 33 44 18 24 1021.7 - -
19/03:10pm 12.3 5.8 10.4 88 1.0 SE 35 41 19 22 1021.6 - -
19/03:00pm 12.5 3.9 10.2 86 1.2 ESE 46 54 25 29 1021.4 - -
19/02:50pm 13.1 5.1 10.3 83 1.5 ESE 43 52 23 28 1021.4 - -
19/02:40pm 13.3 6.0 10.3 82 1.6 ESE 39 48 21 26 1021.4 - -
19/02:30pm 13.3 7.1 10.2 81 1.6 SE 33 39 18 21 1021.3 - -
19/02:20pm 13.3 7.1 10.2 81 1.6 SE 33 39 18 21 1021.3 - -
19/02:10pm 13.3 7.7 10.3 82 1.6 SE 30 33 16 18 1021.2 - -
19/02:00pm 13.2 8.4 10.2 82 1.6 SSE 26 33 14 18 1021.3 - -
19/01:50pm 12.9 9.3 9.8 81 1.6 SSE 19 22 10 12 1021.2 - -
19/01:40pm 12.7 9.0 9.4 80 1.7 S 19 35 10 19 1021.2 - -
19/01:30pm 12.7 8.9 9.2 79 1.8 S 19 22 10 12 1021.1 - -
19/01:20pm 12.6 8.6 9.1 79 1.8 S 20 24 11 13 1021.1 - -
19/01:10pm 12.7 8.3 9.0 78 1.9 S 22 24 12 13 1021.1 - -
19/01:00pm 12.7 8.7 8.9 77 1.9 SSE 20 24 11 13 1021.0 - -
19/12:50pm 12.8 9.3 8.9 77 2.0 S 17 20 9 11 1020.9 - -
19/12:40pm 12.7 9.2 8.8 77 2.0 S 17 19 9 10 1020.9 - -
19/12:30pm 12.8 9.7 8.8 76 2.0 S 15 19 8 10 1020.9 - -
19/12:20pm 12.7 9.9 8.6 76 2.0 S 13 15 7 8 1020.8 - -
19/12:10pm 12.8 10.0 8.4 74 2.2 S 13 15 7 8 1020.7 - -
19/12:00pm 12.8 10.0 8.5 75 2.1 S 13 17 7 9 1020.7 - -
19/11:50am 13.0 10.2 8.6 74 2.2 S 13 15 7 8 1020.7 - -
19/11:40am 13.1 10.4 8.8 75 2.2 S 13 15 7 8 1020.7 - -
19/11:30am 12.9 10.1 8.6 75 2.1 S 13 17 7 9 1020.8 - -
19/11:20am 12.9 10.1 8.4 74 2.2 S 13 15 7 8 1020.7 - -
19/11:10am 13.0 10.2 8.6 74 2.2 S 13 15 7 8 1020.8 - -
19/11:00am 13.0 11.0 8.6 74 2.2 S 9 11 5 6 1020.6 - -
19/10:50am 12.9 10.9 8.6 75 2.1 S 9 11 5 6 1020.4 - -
19/10:40am 12.7 10.7 8.5 75 2.1 S 9 13 5 7 1020.3 - -
19/10:30am 12.7 9.9 8.4 75 2.1 S 13 15 7 8 1020.3 - -
19/10:20am 12.8 10.4 8.5 75 2.1 S 11 15 6 8 1020.2 - -
19/10:10am 12.9 10.1 8.4 74 2.2 S 13 15 7 8 1020.1 - -
19/10:00am 13.2 10.4 8.5 73 2.3 S 13 15 7 8 1020.0 - -
19/09:50am 13.4 11.0 8.8 74 2.3 S 11 15 6 8 1019.9 - -
19/09:40am 13.0 10.2 8.5 74 2.2 S 13 17 7 9 1019.8 - -
19/09:30am 13.0 10.1 8.3 73 2.3 S 13 17 7 9 1019.7 - -
19/09:20am 15.2 12.2 9.2 67 3.1 SSW 15 19 8 10 1019.4 - -
19/09:10am 15.3 11.9 9.1 66 3.2 SW 17 19 9 10 1019.1 - -
19/09:00am 14.6 11.2 9.0 69 2.9 SW 17 19 9 10 1018.8 - -
19/08:40am 14.3 12.7 10.2 76 2.1 SW 9 13 5 7 1018.9 - -
19/08:30am 12.8 11.5 9.3 79 1.8 SW 6 9 3 5 1018.8 - -
19/08:20am 11.8 10.1 8.3 79 1.7 SSW 7 9 4 5 1018.9 - -
19/08:10am 11.2 7.4 7.5 78 1.8 SSE 17 24 9 13 1019.0 - -
19/08:00am 12.0 6.4 7.1 72 2.4 SSE 26 37 14 20 1019.0 - -
19/07:50am 12.9 8.7 8.2 73 2.3 SSW 20 22 11 12 1018.8 - -
19/07:40am 12.9 8.9 8.2 73 2.3 SSW 19 22 10 12 1018.6 - -

Other formats

Comma delimited format used in spreadsheet applications
http://www.bom.gov.au/fwo/IDV60801/IDV60801.55039.axf

JavaScript Object Notation format (JSON) in row-major order
http://www.bom.gov.au/fwo/IDV60801/IDV60801.55039.json

Data quality

Most of these data are generated automatically and are frequently updated. Quality checks on data are not normally performed. It is possible for incorrect values to appear. Refer to information at About Latest Weather Observations and please check the disclaimer before using these data.